sensor_id;sensor_type;location;lat;lon;timestamp;P1;durP1;ratioP1;P2;durP2;ratioP2
727;SDS011;347;48.780;9.158;2023-08-31T00:01:39;5.57;;;5.37;;
727;SDS011;347;48.780;9.158;2023-08-31T00:04:04;5.40;;;5.10;;
727;SDS011;347;48.780;9.158;2023-08-31T00:06:33;6.03;;;5.73;;
727;SDS011;347;48.780;9.158;2023-08-31T00:08:59;5.67;;;5.37;;
727;SDS011;347;48.780;9.158;2023-08-31T00:11:24;6.37;;;5.97;;
727;SDS011;347;48.780;9.158;2023-08-31T00:13:51;6.20;;;5.87;;
727;SDS011;347;48.780;9.158;2023-08-31T00:16:17;5.77;;;5.53;;
727;SDS011;347;48.780;9.158;2023-08-31T00:18:42;6.70;;;6.30;;
727;SDS011;347;48.780;9.158;2023-08-31T00:21:10;6.97;;;6.67;;
727;SDS011;347;48.780;9.158;2023-08-31T00:23:35;6.60;;;6.20;;
727;SDS011;347;48.780;9.158;2023-08-31T00:26:02;6.03;;;5.83;;
727;SDS011;347;48.780;9.158;2023-08-31T00:28:27;6.20;;;5.90;;
727;SDS011;347;48.780;9.158;2023-08-31T00:30:53;6.63;;;6.20;;
727;SDS011;347;48.780;9.158;2023-08-31T00:33:19;6.47;;;6.07;;
727;SDS011;347;48.780;9.158;2023-08-31T00:35:45;6.20;;;5.90;;
727;SDS011;347;48.780;9.158;2023-08-31T00:38:14;6.17;;;5.77;;
727;SDS011;347;48.780;9.158;2023-08-31T00:40:40;7.10;;;6.70;;
727;SDS011;347;48.780;9.158;2023-08-31T00:43:09;6.20;;;5.90;;
727;SDS011;347;48.780;9.158;2023-08-31T00:45:35;6.90;;;6.43;;
727;SDS011;347;48.780;9.158;2023-08-31T00:48:02;6.50;;;6.00;;
727;SDS011;347;48.780;9.158;2023-08-31T00:50:29;6.27;;;5.97;;
727;SDS011;347;48.780;9.158;2023-08-31T00:52:55;6.40;;;6.10;;
727;SDS011;347;48.780;9.158;2023-08-31T00:55:20;7.40;;;6.67;;
727;SDS011;347;48.780;9.158;2023-08-31T00:57:46;6.57;;;6.27;;
727;SDS011;347;48.780;9.158;2023-08-31T01:00:12;6.63;;;6.33;;
727;SDS011;347;48.780;9.158;2023-08-31T01:06:07;6.80;;;6.50;;
727;SDS011;347;48.780;9.158;2023-08-31T01:09:02;6.47;;;6.17;;
727;SDS011;347;48.780;9.158;2023-08-31T01:14:23;7.27;;;6.87;;
727;SDS011;347;48.780;9.158;2023-08-31T01:16:51;7.00;;;6.57;;
727;SDS011;347;48.780;9.158;2023-08-31T01:22:05;7.20;;;6.83;;
727;SDS011;347;48.780;9.158;2023-08-31T01:24:36;7.23;;;6.87;;
727;SDS011;347;48.780;9.158;2023-08-31T01:27:03;7.50;;;6.80;;
727;SDS011;347;48.780;9.158;2023-08-31T01:29:29;6.60;;;6.30;;
727;SDS011;347;48.780;9.158;2023-08-31T01:31:55;6.87;;;6.47;;
727;SDS011;347;48.780;9.158;2023-08-31T01:34:21;6.60;;;6.30;;
727;SDS011;347;48.780;9.158;2023-08-31T01:36:47;7.13;;;6.83;;
727;SDS011;347;48.780;9.158;2023-08-31T01:39:27;7.00;;;6.70;;
727;SDS011;347;48.780;9.158;2023-08-31T01:42:00;6.90;;;6.60;;
727;SDS011;347;48.780;9.158;2023-08-31T01:44:30;7.50;;;7.00;;
727;SDS011;347;48.780;9.158;2023-08-31T01:47:02;8.13;;;7.50;;
727;SDS011;347;48.780;9.158;2023-08-31T01:49:35;7.00;;;6.70;;
727;SDS011;347;48.780;9.158;2023-08-31T01:52:01;7.60;;;7.00;;
727;SDS011;347;48.780;9.158;2023-08-31T01:54:27;7.53;;;7.10;;
727;SDS011;347;48.780;9.158;2023-08-31T01:56:52;7.50;;;7.20;;
727;SDS011;347;48.780;9.158;2023-08-31T01:59:18;7.83;;;7.13;;
727;SDS011;347;48.780;9.158;2023-08-31T02:01:43;6.97;;;6.67;;
727;SDS011;347;48.780;9.158;2023-08-31T02:04:09;7.63;;;7.30;;
727;SDS011;347;48.780;9.158;2023-08-31T02:06:34;7.87;;;7.37;;
727;SDS011;347;48.780;9.158;2023-08-31T02:09:00;6.70;;;6.40;;
727;SDS011;347;48.780;9.158;2023-08-31T02:11:25;7.93;;;7.53;;
727;SDS011;347;48.780;9.158;2023-08-31T02:13:51;7.17;;;6.77;;
727;SDS011;347;48.780;9.158;2023-08-31T02:16:17;7.53;;;7.13;;
727;SDS011;347;48.780;9.158;2023-08-31T02:18:42;6.57;;;6.27;;
727;SDS011;347;48.780;9.158;2023-08-31T02:21:08;7.77;;;7.37;;
727;SDS011;347;48.780;9.158;2023-08-31T02:23:33;7.20;;;6.70;;
727;SDS011;347;48.780;9.158;2023-08-31T02:25:59;7.77;;;7.47;;
727;SDS011;347;48.780;9.158;2023-08-31T02:28:24;8.20;;;7.70;;
727;SDS011;347;48.780;9.158;2023-08-31T02:30:57;7.37;;;6.87;;
727;SDS011;347;48.780;9.158;2023-08-31T02:33:24;7.37;;;7.03;;
727;SDS011;347;48.780;9.158;2023-08-31T02:35:50;7.63;;;7.23;;
727;SDS011;347;48.780;9.158;2023-08-31T02:38:16;8.07;;;7.57;;
727;SDS011;347;48.780;9.158;2023-08-31T02:40:41;7.80;;;7.50;;
727;SDS011;347;48.780;9.158;2023-08-31T02:43:07;8.43;;;7.90;;
727;SDS011;347;48.780;9.158;2023-08-31T02:45:32;7.37;;;7.07;;
727;SDS011;347;48.780;9.158;2023-08-31T02:47:58;6.97;;;6.70;;
727;SDS011;347;48.780;9.158;2023-08-31T02:50:23;7.10;;;6.80;;
727;SDS011;347;48.780;9.158;2023-08-31T02:52:49;7.70;;;7.30;;
727;SDS011;347;48.780;9.158;2023-08-31T02:55:15;8.07;;;7.67;;
727;SDS011;347;48.780;9.158;2023-08-31T02:57:40;7.50;;;7.20;;
727;SDS011;347;48.780;9.158;2023-08-31T03:00:06;7.27;;;6.90;;
727;SDS011;347;48.780;9.158;2023-08-31T03:02:36;7.43;;;7.03;;
727;SDS011;347;48.780;9.158;2023-08-31T03:05:01;7.63;;;7.20;;
727;SDS011;347;48.780;9.158;2023-08-31T03:07:27;7.20;;;6.90;;
727;SDS011;347;48.780;9.158;2023-08-31T03:09:53;7.50;;;7.10;;
727;SDS011;347;48.780;9.158;2023-08-31T03:12:18;7.53;;;7.20;;
727;SDS011;347;48.780;9.158;2023-08-31T03:14:44;7.53;;;7.30;;
727;SDS011;347;48.780;9.158;2023-08-31T03:17:09;7.70;;;7.40;;
727;SDS011;347;48.780;9.158;2023-08-31T03:19:35;8.00;;;7.70;;
727;SDS011;347;48.780;9.158;2023-08-31T03:22:00;7.10;;;6.90;;
727;SDS011;347;48.780;9.158;2023-08-31T03:24:26;7.30;;;7.00;;
727;SDS011;347;48.780;9.158;2023-08-31T03:26:51;6.50;;;6.30;;
727;SDS011;347;48.780;9.158;2023-08-31T03:29:17;7.20;;;6.90;;
727;SDS011;347;48.780;9.158;2023-08-31T03:31:43;8.10;;;7.70;;
727;SDS011;347;48.780;9.158;2023-08-31T03:34:08;8.27;;;7.87;;
727;SDS011;347;48.780;9.158;2023-08-31T03:36:34;7.50;;;7.20;;
727;SDS011;347;48.780;9.158;2023-08-31T03:38:59;8.33;;;8.03;;
727;SDS011;347;48.780;9.158;2023-08-31T03:41:25;7.80;;;7.37;;
727;SDS011;347;48.780;9.158;2023-08-31T03:43:50;7.90;;;7.50;;
727;SDS011;347;48.780;9.158;2023-08-31T03:46:16;8.90;;;8.57;;
727;SDS011;347;48.780;9.158;2023-08-31T03:48:41;7.47;;;7.17;;
727;SDS011;347;48.780;9.158;2023-08-31T03:51:07;7.50;;;7.00;;
727;SDS011;347;48.780;9.158;2023-08-31T03:53:32;6.50;;;6.30;;
727;SDS011;347;48.780;9.158;2023-08-31T03:55:58;7.40;;;7.00;;
727;SDS011;347;48.780;9.158;2023-08-31T03:58:23;8.50;;;7.80;;
727;SDS011;347;48.780;9.158;2023-08-31T04:00:49;8.83;;;8.37;;
727;SDS011;347;48.780;9.158;2023-08-31T04:03:15;8.97;;;8.63;;
727;SDS011;347;48.780;9.158;2023-08-31T04:05:41;8.97;;;8.43;;
727;SDS011;347;48.780;9.158;2023-08-31T04:08:07;8.90;;;8.30;;
727;SDS011;347;48.780;9.158;2023-08-31T04:10:32;8.60;;;8.20;;
727;SDS011;347;48.780;9.158;2023-08-31T04:12:58;9.23;;;8.83;;
727;SDS011;347;48.780;9.158;2023-08-31T04:15:24;8.00;;;7.60;;
727;SDS011;347;48.780;9.158;2023-08-31T04:17:49;9.70;;;9.20;;
727;SDS011;347;48.780;9.158;2023-08-31T04:20:15;9.03;;;8.53;;
727;SDS011;347;48.780;9.158;2023-08-31T04:22:40;9.03;;;8.63;;
727;SDS011;347;48.780;9.158;2023-08-31T04:25:06;8.40;;;8.00;;
727;SDS011;347;48.780;9.158;2023-08-31T04:27:32;8.57;;;8.17;;
727;SDS011;347;48.780;9.158;2023-08-31T04:30:00;9.47;;;9.07;;
727;SDS011;347;48.780;9.158;2023-08-31T04:32:27;8.20;;;7.80;;
727;SDS011;347;48.780;9.158;2023-08-31T04:34:53;8.97;;;8.67;;
727;SDS011;347;48.780;9.158;2023-08-31T04:37:18;9.20;;;8.60;;
727;SDS011;347;48.780;9.158;2023-08-31T04:39:45;8.70;;;8.40;;
727;SDS011;347;48.780;9.158;2023-08-31T04:42:11;9.57;;;8.80;;
727;SDS011;347;48.780;9.158;2023-08-31T04:44:36;9.17;;;8.77;;
727;SDS011;347;48.780;9.158;2023-08-31T04:47:02;10.23;;;9.63;;
727;SDS011;347;48.780;9.158;2023-08-31T04:49:28;9.47;;;9.07;;
727;SDS011;347;48.780;9.158;2023-08-31T04:51:56;9.60;;;8.80;;
727;SDS011;347;48.780;9.158;2023-08-31T04:54:22;10.30;;;9.70;;
727;SDS011;347;48.780;9.158;2023-08-31T04:56:47;10.30;;;9.90;;
727;SDS011;347;48.780;9.158;2023-08-31T04:59:13;8.90;;;8.40;;
727;SDS011;347;48.780;9.158;2023-08-31T05:01:39;9.80;;;9.40;;
727;SDS011;347;48.780;9.158;2023-08-31T05:04:04;10.37;;;9.80;;
727;SDS011;347;48.780;9.158;2023-08-31T05:06:30;11.10;;;10.17;;
727;SDS011;347;48.780;9.158;2023-08-31T05:08:56;10.50;;;10.10;;
727;SDS011;347;48.780;9.158;2023-08-31T05:11:21;10.60;;;9.90;;
727;SDS011;347;48.780;9.158;2023-08-31T05:13:47;10.30;;;9.60;;
727;SDS011;347;48.780;9.158;2023-08-31T05:16:13;11.33;;;10.70;;
727;SDS011;347;48.780;9.158;2023-08-31T05:18:38;10.00;;;9.50;;
727;SDS011;347;48.780;9.158;2023-08-31T05:21:05;9.83;;;9.27;;
727;SDS011;347;48.780;9.158;2023-08-31T05:23:31;9.83;;;9.43;;
727;SDS011;347;48.780;9.158;2023-08-31T05:25:57;9.50;;;9.00;;
727;SDS011;347;48.780;9.158;2023-08-31T05:28:23;9.97;;;9.47;;
727;SDS011;347;48.780;9.158;2023-08-31T05:30:52;11.27;;;10.17;;
727;SDS011;347;48.780;9.158;2023-08-31T05:33:18;9.77;;;9.30;;
727;SDS011;347;48.780;9.158;2023-08-31T05:35:44;9.80;;;9.30;;
727;SDS011;347;48.780;9.158;2023-08-31T05:38:10;9.37;;;8.87;;
727;SDS011;347;48.780;9.158;2023-08-31T05:40:36;9.37;;;8.97;;
727;SDS011;347;48.780;9.158;2023-08-31T05:43:02;11.03;;;10.13;;
727;SDS011;347;48.780;9.158;2023-08-31T05:45:33;11.03;;;10.30;;
727;SDS011;347;48.780;9.158;2023-08-31T05:47:59;10.10;;;9.50;;
727;SDS011;347;48.780;9.158;2023-08-31T05:50:26;10.50;;;9.80;;
727;SDS011;347;48.780;9.158;2023-08-31T05:52:52;9.73;;;9.30;;
727;SDS011;347;48.780;9.158;2023-08-31T05:55:18;10.10;;;9.50;;
727;SDS011;347;48.780;9.158;2023-08-31T05:57:43;9.17;;;8.77;;
727;SDS011;347;48.780;9.158;2023-08-31T06:00:09;9.10;;;8.70;;
727;SDS011;347;48.780;9.158;2023-08-31T06:02:35;10.50;;;9.90;;
727;SDS011;347;48.780;9.158;2023-08-31T06:05:01;11.13;;;10.30;;
727;SDS011;347;48.780;9.158;2023-08-31T06:07:28;9.87;;;9.47;;
727;SDS011;347;48.780;9.158;2023-08-31T06:09:54;10.73;;;10.20;;
727;SDS011;347;48.780;9.158;2023-08-31T06:12:20;10.10;;;9.50;;
727;SDS011;347;48.780;9.158;2023-08-31T06:14:45;10.10;;;9.50;;
727;SDS011;347;48.780;9.158;2023-08-31T06:17:11;10.00;;;9.50;;
727;SDS011;347;48.780;9.158;2023-08-31T06:19:38;10.20;;;9.70;;
727;SDS011;347;48.780;9.158;2023-08-31T06:22:04;11.13;;;10.17;;
727;SDS011;347;48.780;9.158;2023-08-31T06:24:29;9.70;;;9.27;;
727;SDS011;347;48.780;9.158;2023-08-31T06:26:55;9.70;;;9.20;;
727;SDS011;347;48.780;9.158;2023-08-31T06:29:21;11.67;;;11.13;;
727;SDS011;347;48.780;9.158;2023-08-31T06:31:47;9.37;;;8.97;;
727;SDS011;347;48.780;9.158;2023-08-31T06:34:13;11.60;;;11.00;;
727;SDS011;347;48.780;9.158;2023-08-31T06:36:38;10.87;;;10.00;;
727;SDS011;347;48.780;9.158;2023-08-31T06:39:05;10.20;;;9.60;;
727;SDS011;347;48.780;9.158;2023-08-31T06:41:31;9.23;;;8.73;;
727;SDS011;347;48.780;9.158;2023-08-31T06:43:57;9.30;;;8.80;;
727;SDS011;347;48.780;9.158;2023-08-31T06:46:22;9.13;;;8.73;;
727;SDS011;347;48.780;9.158;2023-08-31T06:48:48;9.37;;;8.87;;
727;SDS011;347;48.780;9.158;2023-08-31T06:51:14;9.50;;;9.00;;
727;SDS011;347;48.780;9.158;2023-08-31T06:53:40;9.83;;;9.27;;
727;SDS011;347;48.780;9.158;2023-08-31T06:56:09;7.90;;;7.40;;
727;SDS011;347;48.780;9.158;2023-08-31T06:58:35;10.30;;;9.53;;
727;SDS011;347;48.780;9.158;2023-08-31T07:01:00;9.43;;;8.60;;
727;SDS011;347;48.780;9.158;2023-08-31T07:03:26;8.93;;;8.20;;
727;SDS011;347;48.780;9.158;2023-08-31T07:05:52;8.73;;;8.00;;
727;SDS011;347;48.780;9.158;2023-08-31T07:08:17;8.70;;;8.30;;
727;SDS011;347;48.780;9.158;2023-08-31T07:10:43;8.90;;;8.40;;
727;SDS011;347;48.780;9.158;2023-08-31T07:13:08;8.77;;;8.40;;
727;SDS011;347;48.780;9.158;2023-08-31T07:15:34;8.97;;;8.47;;
727;SDS011;347;48.780;9.158;2023-08-31T07:17:59;8.60;;;8.20;;
727;SDS011;347;48.780;9.158;2023-08-31T07:20:25;8.70;;;8.30;;
727;SDS011;347;48.780;9.158;2023-08-31T07:22:50;10.23;;;9.63;;
727;SDS011;347;48.780;9.158;2023-08-31T07:25:16;10.27;;;9.47;;
727;SDS011;347;48.780;9.158;2023-08-31T07:27:42;11.97;;;9.27;;
727;SDS011;347;48.780;9.158;2023-08-31T07:30:08;9.50;;;8.90;;
727;SDS011;347;48.780;9.158;2023-08-31T07:32:35;9.20;;;8.60;;
727;SDS011;347;48.780;9.158;2023-08-31T07:35:00;9.70;;;9.20;;
727;SDS011;347;48.780;9.158;2023-08-31T07:37:26;8.07;;;7.77;;
727;SDS011;347;48.780;9.158;2023-08-31T07:39:51;9.00;;;8.50;;
727;SDS011;347;48.780;9.158;2023-08-31T07:42:17;10.10;;;9.27;;
727;SDS011;347;48.780;9.158;2023-08-31T07:44:42;8.60;;;8.20;;
727;SDS011;347;48.780;9.158;2023-08-31T07:47:09;9.30;;;8.63;;
727;SDS011;347;48.780;9.158;2023-08-31T07:49:34;8.63;;;8.03;;
727;SDS011;347;48.780;9.158;2023-08-31T07:52:00;10.03;;;9.23;;
727;SDS011;347;48.780;9.158;2023-08-31T07:54:26;8.93;;;8.33;;
727;SDS011;347;48.780;9.158;2023-08-31T07:56:51;9.23;;;8.73;;
727;SDS011;347;48.780;9.158;2023-08-31T07:59:17;9.40;;;9.00;;
727;SDS011;347;48.780;9.158;2023-08-31T08:01:43;9.67;;;8.70;;
727;SDS011;347;48.780;9.158;2023-08-31T08:04:10;9.70;;;9.20;;
727;SDS011;347;48.780;9.158;2023-08-31T08:06:36;9.10;;;8.60;;
727;SDS011;347;48.780;9.158;2023-08-31T08:09:02;9.33;;;8.83;;
727;SDS011;347;48.780;9.158;2023-08-31T08:11:29;7.97;;;7.63;;
727;SDS011;347;48.780;9.158;2023-08-31T08:13:55;8.60;;;8.00;;
727;SDS011;347;48.780;9.158;2023-08-31T08:16:20;9.50;;;8.90;;
727;SDS011;347;48.780;9.158;2023-08-31T08:18:46;9.73;;;9.03;;
727;SDS011;347;48.780;9.158;2023-08-31T08:21:11;9.27;;;8.77;;
727;SDS011;347;48.780;9.158;2023-08-31T08:23:37;9.10;;;8.50;;
727;SDS011;347;48.780;9.158;2023-08-31T08:26:02;9.70;;;9.20;;
727;SDS011;347;48.780;9.158;2023-08-31T08:28:28;9.53;;;9.03;;
727;SDS011;347;48.780;9.158;2023-08-31T08:30:54;9.30;;;8.80;;
727;SDS011;347;48.780;9.158;2023-08-31T08:33:19;9.30;;;8.80;;
727;SDS011;347;48.780;9.158;2023-08-31T08:35:45;9.43;;;8.73;;
727;SDS011;347;48.780;9.158;2023-08-31T08:38:11;8.53;;;8.23;;
727;SDS011;347;48.780;9.158;2023-08-31T08:40:36;8.87;;;8.20;;
727;SDS011;347;48.780;9.158;2023-08-31T08:43:02;8.83;;;8.33;;
727;SDS011;347;48.780;9.158;2023-08-31T08:45:35;8.83;;;8.33;;
727;SDS011;347;48.780;9.158;2023-08-31T08:48:04;8.80;;;8.17;;
727;SDS011;347;48.780;9.158;2023-08-31T08:50:31;10.70;;;10.10;;
727;SDS011;347;48.780;9.158;2023-08-31T08:52:59;9.13;;;8.63;;
727;SDS011;347;48.780;9.158;2023-08-31T08:55:25;8.80;;;8.30;;
727;SDS011;347;48.780;9.158;2023-08-31T08:57:51;9.37;;;8.70;;
727;SDS011;347;48.780;9.158;2023-08-31T09:00:16;9.03;;;8.63;;
727;SDS011;347;48.780;9.158;2023-08-31T09:02:42;10.93;;;9.37;;
727;SDS011;347;48.780;9.158;2023-08-31T09:05:08;9.53;;;8.93;;
727;SDS011;347;48.780;9.158;2023-08-31T19:55:19;9.37;;;8.10;;
727;SDS011;347;48.780;9.158;2023-08-31T19:57:45;8.03;;;7.30;;
727;SDS011;347;48.780;9.158;2023-08-31T20:00:11;8.80;;;8.00;;
727;SDS011;347;48.780;9.158;2023-08-31T20:02:36;6.60;;;6.30;;
727;SDS011;347;48.780;9.158;2023-08-31T20:05:02;7.50;;;6.80;;
727;SDS011;347;48.780;9.158;2023-08-31T20:07:29;7.40;;;6.83;;
727;SDS011;347;48.780;9.158;2023-08-31T20:09:55;7.90;;;7.30;;
727;SDS011;347;48.780;9.158;2023-08-31T20:12:20;8.80;;;8.00;;
727;SDS011;347;48.780;9.158;2023-08-31T20:14:55;8.70;;;8.03;;
727;SDS011;347;48.780;9.158;2023-08-31T20:17:21;7.40;;;7.00;;
727;SDS011;347;48.780;9.158;2023-08-31T20:19:46;7.87;;;7.23;;
727;SDS011;347;48.780;9.158;2023-08-31T20:22:12;7.80;;;7.30;;
727;SDS011;347;48.780;9.158;2023-08-31T20:24:37;7.40;;;6.80;;
727;SDS011;347;48.780;9.158;2023-08-31T20:27:03;7.70;;;7.20;;
727;SDS011;347;48.780;9.158;2023-08-31T20:29:30;8.97;;;7.33;;
727;SDS011;347;48.780;9.158;2023-08-31T20:31:56;8.07;;;7.53;;
727;SDS011;347;48.780;9.158;2023-08-31T20:34:24;7.10;;;6.50;;
727;SDS011;347;48.780;9.158;2023-08-31T20:36:50;8.00;;;7.40;;
727;SDS011;347;48.780;9.158;2023-08-31T20:39:17;7.43;;;6.83;;
727;SDS011;347;48.780;9.158;2023-08-31T20:41:42;8.80;;;8.00;;
727;SDS011;347;48.780;9.158;2023-08-31T20:44:09;8.97;;;8.37;;
727;SDS011;347;48.780;9.158;2023-08-31T20:46:35;8.67;;;7.83;;
727;SDS011;347;48.780;9.158;2023-08-31T20:49:01;9.10;;;8.40;;
727;SDS011;347;48.780;9.158;2023-08-31T20:51:29;8.93;;;8.20;;
727;SDS011;347;48.780;9.158;2023-08-31T20:53:55;7.37;;;6.97;;
727;SDS011;347;48.780;9.158;2023-08-31T20:56:21;7.40;;;6.90;;
727;SDS011;347;48.780;9.158;2023-08-31T20:58:47;9.13;;;8.50;;
727;SDS011;347;48.780;9.158;2023-08-31T21:01:13;8.00;;;7.40;;
727;SDS011;347;48.780;9.158;2023-08-31T21:03:39;8.77;;;8.17;;
727;SDS011;347;48.780;9.158;2023-08-31T21:06:09;7.60;;;7.10;;
727;SDS011;347;48.780;9.158;2023-08-31T21:37:04;8.47;;;7.80;;
727;SDS011;347;48.780;9.158;2023-08-31T21:39:30;9.17;;;8.40;;
727;SDS011;347;48.780;9.158;2023-08-31T21:41:55;8.90;;;8.17;;
727;SDS011;347;48.780;9.158;2023-08-31T21:44:21;8.17;;;7.63;;
727;SDS011;347;48.780;9.158;2023-08-31T21:46:46;9.10;;;8.60;;
727;SDS011;347;48.780;9.158;2023-08-31T21:49:12;10.10;;;8.83;;
727;SDS011;347;48.780;9.158;2023-08-31T21:51:38;9.10;;;8.20;;
727;SDS011;347;48.780;9.158;2023-08-31T21:54:04;9.27;;;8.67;;
727;SDS011;347;48.780;9.158;2023-08-31T21:56:30;8.20;;;7.70;;
727;SDS011;347;48.780;9.158;2023-08-31T21:58:55;9.50;;;8.70;;
727;SDS011;347;48.780;9.158;2023-08-31T22:01:21;9.43;;;8.60;;
727;SDS011;347;48.780;9.158;2023-08-31T22:03:46;10.10;;;9.40;;
727;SDS011;347;48.780;9.158;2023-08-31T22:06:12;10.07;;;9.37;;
727;SDS011;347;48.780;9.158;2023-08-31T22:08:38;10.17;;;9.37;;
727;SDS011;347;48.780;9.158;2023-08-31T22:11:03;10.03;;;9.33;;
727;SDS011;347;48.780;9.158;2023-08-31T22:13:30;9.93;;;9.17;;
727;SDS011;347;48.780;9.158;2023-08-31T22:15:56;9.90;;;9.00;;
727;SDS011;347;48.780;9.158;2023-08-31T22:18:22;9.70;;;8.90;;
727;SDS011;347;48.780;9.158;2023-08-31T22:20:48;9.10;;;8.40;;
727;SDS011;347;48.780;9.158;2023-08-31T22:23:13;9.80;;;8.37;;
727;SDS011;347;48.780;9.158;2023-08-31T22:25:39;9.77;;;9.07;;
727;SDS011;347;48.780;9.158;2023-08-31T22:28:05;9.10;;;8.30;;
727;SDS011;347;48.780;9.158;2023-08-31T22:30:30;9.10;;;8.30;;
727;SDS011;347;48.780;9.158;2023-08-31T22:32:57;9.33;;;8.73;;
727;SDS011;347;48.780;9.158;2023-08-31T22:35:22;10.10;;;9.30;;
727;SDS011;347;48.780;9.158;2023-08-31T22:37:48;9.53;;;8.73;;
727;SDS011;347;48.780;9.158;2023-08-31T22:40:13;9.57;;;8.70;;
727;SDS011;347;48.780;9.158;2023-08-31T22:42:40;13.50;;;12.70;;
727;SDS011;347;48.780;9.158;2023-08-31T22:45:06;10.53;;;9.63;;
727;SDS011;347;48.780;9.158;2023-08-31T22:47:33;10.43;;;9.30;;
727;SDS011;347;48.780;9.158;2023-08-31T22:49:59;10.50;;;9.43;;
727;SDS011;347;48.780;9.158;2023-08-31T22:52:25;10.67;;;10.07;;
727;SDS011;347;48.780;9.158;2023-08-31T22:54:54;9.13;;;8.33;;
727;SDS011;347;48.780;9.158;2023-08-31T22:57:20;9.67;;;8.97;;
727;SDS011;347;48.780;9.158;2023-08-31T22:59:46;9.57;;;8.87;;
727;SDS011;347;48.780;9.158;2023-08-31T23:02:12;9.07;;;8.17;;
727;SDS011;347;48.780;9.158;2023-08-31T23:04:37;9.00;;;8.50;;
727;SDS011;347;48.780;9.158;2023-08-31T23:07:03;7.90;;;7.30;;
727;SDS011;347;48.780;9.158;2023-08-31T23:09:29;8.57;;;8.07;;
727;SDS011;347;48.780;9.158;2023-08-31T23:11:58;7.70;;;7.30;;
727;SDS011;347;48.780;9.158;2023-08-31T23:14:25;8.40;;;7.90;;
727;SDS011;347;48.780;9.158;2023-08-31T23:16:51;8.10;;;7.60;;
727;SDS011;347;48.780;9.158;2023-08-31T23:19:17;8.60;;;8.10;;
727;SDS011;347;48.780;9.158;2023-08-31T23:21:42;10.43;;;7.87;;
727;SDS011;347;48.780;9.158;2023-08-31T23:24:08;8.10;;;7.50;;
727;SDS011;347;48.780;9.158;2023-08-31T23:26:34;7.73;;;7.20;;
727;SDS011;347;48.780;9.158;2023-08-31T23:28:59;8.20;;;7.80;;
727;SDS011;347;48.780;9.158;2023-08-31T23:31:25;7.70;;;7.30;;
727;SDS011;347;48.780;9.158;2023-08-31T23:33:50;8.10;;;7.60;;
727;SDS011;347;48.780;9.158;2023-08-31T23:36:16;7.60;;;7.10;;
727;SDS011;347;48.780;9.158;2023-08-31T23:38:41;8.43;;;7.97;;
727;SDS011;347;48.780;9.158;2023-08-31T23:41:07;8.03;;;7.53;;
727;SDS011;347;48.780;9.158;2023-08-31T23:43:33;8.10;;;7.60;;
727;SDS011;347;48.780;9.158;2023-08-31T23:45:58;7.03;;;6.73;;
727;SDS011;347;48.780;9.158;2023-08-31T23:48:24;7.30;;;6.80;;
727;SDS011;347;48.780;9.158;2023-08-31T23:50:50;7.03;;;6.70;;
727;SDS011;347;48.780;9.158;2023-08-31T23:53:15;7.27;;;6.77;;
727;SDS011;347;48.780;9.158;2023-08-31T23:55:41;7.10;;;6.67;;
727;SDS011;347;48.780;9.158;2023-08-31T23:58:09;6.90;;;6.43;;
